Limestone, Maine
Current Conditions -  °F | °C
As of 5:54 PM on Wednesday 22 Oct 2014 (Local Time) from KCAR Reporting Station
Overcast Overcast  
Wind Chill: 44°   Ceiling: 8000
Heat Index: 48°   Visibility: 10mi
Dew Point: 35°   Wind: 8mph
Humidity: 61%   Direction: 70°ENE
Pressure: 30.34"   Gusts: NA
Location:  46.91°N, 67.83°W
Report Text: KCAR 222154Z AUTO 07007KT 10SM OVC080 09/02 A3034 RMK AO2 SLP283 T00890017
Loading
Personal Weather Stations






























Interactive Weather Map
Tropical Storm Tracking
New forecast layout! Learn more

10-Day Weather Forecast

Advertisements
Track Severe Weather on mobile